createdAt,value
2018-09-19T00:01:29.880Z,98113.23
2018-09-19T00:03:59.273Z,98110.73
2018-09-19T00:06:28.694Z,98112.11
2018-09-19T00:08:58.061Z,98112.34
2018-09-19T00:11:27.461Z,98116.91
2018-09-19T00:13:56.843Z,98116.88
2018-09-19T00:16:26.232Z,98123.44
2018-09-19T00:18:55.602Z,98121.84
2018-09-19T00:21:24.991Z,98129.41
2018-09-19T00:23:54.372Z,98129.12
2018-09-19T00:26:23.774Z,98135.36
2018-09-19T00:28:53.182Z,98132.55
2018-09-19T00:31:22.557Z,98132.69
2018-09-19T00:33:51.930Z,98134.22
2018-09-19T00:36:21.325Z,98131.00
2018-09-19T00:38:50.687Z,98138.44
2018-09-19T00:41:20.142Z,98134.27
2018-09-19T00:43:49.522Z,98136.72
2018-09-19T00:46:18.887Z,98137.56
2018-09-19T00:48:48.261Z,98138.48
2018-09-19T00:51:17.639Z,98146.56
2018-09-19T00:53:47.006Z,98144.37
2018-09-19T00:56:16.387Z,98145.34
2018-09-19T00:58:46.281Z,98144.23
2018-09-19T01:01:15.704Z,98145.41
2018-09-19T01:03:45.122Z,98148.87
2018-09-19T01:06:14.482Z,98152.08
2018-09-19T01:08:43.866Z,98151.73
2018-09-19T01:11:13.281Z,98156.58
2018-09-19T01:13:42.668Z,98160.86
2018-09-19T01:16:12.073Z,98162.40
2018-09-19T01:18:41.440Z,98159.39
2018-09-19T01:21:10.824Z,98161.55
2018-09-19T01:23:40.200Z,98161.03
2018-09-19T01:26:09.546Z,98160.46
2018-09-19T01:28:38.955Z,98164.61
2018-09-19T01:31:08.404Z,98165.50
2018-09-19T01:33:37.766Z,98168.48
2018-09-19T01:36:07.182Z,98175.84
2018-09-19T01:38:36.566Z,98174.17
2018-09-19T01:41:06.007Z,98175.92
2018-09-19T01:43:35.327Z,98173.45
2018-09-19T01:46:04.823Z,98187.67
2018-09-19T01:48:34.245Z,98186.33
2018-09-19T01:51:03.616Z,98191.89
2018-09-19T01:53:32.986Z,98200.66
2018-09-19T01:56:02.651Z,98201.95
2018-09-19T01:58:32.108Z,98208.48
2018-09-19T02:01:01.458Z,98205.01
2018-09-19T02:03:30.914Z,98197.00
2018-09-19T02:06:00.284Z,98197.77
2018-09-19T02:08:29.672Z,98202.61
2018-09-19T02:10:59.070Z,98200.45
2018-09-19T02:13:28.450Z,98192.46
2018-09-19T02:15:57.821Z,98195.16
2018-09-19T02:18:27.235Z,98192.70
2018-09-19T02:20:56.622Z,98191.35
2018-09-19T02:23:25.989Z,98194.53
2018-09-19T02:25:55.373Z,98198.94
2018-09-19T02:28:24.816Z,98208.13
2018-09-19T02:30:54.167Z,98210.11
2018-09-19T02:33:23.555Z,98210.89
2018-09-19T02:35:52.945Z,98205.34
2018-09-19T02:38:22.337Z,98207.76
2018-09-19T02:40:51.773Z,98215.39
2018-09-19T02:43:21.218Z,98212.09
2018-09-19T02:45:50.606Z,98210.30
2018-09-19T02:48:19.986Z,98212.52
2018-09-19T02:50:49.405Z,98212.14
2018-09-19T02:53:18.785Z,98214.27
2018-09-19T02:55:48.159Z,98215.91
2018-09-19T02:58:17.561Z,98218.08
2018-09-19T03:00:46.962Z,98214.60
2018-09-19T03:03:16.409Z,98221.52
2018-09-19T03:05:45.790Z,98217.18
2018-09-19T03:08:15.166Z,98216.23
2018-09-19T03:10:44.534Z,98213.31
2018-09-19T03:13:13.910Z,98215.11
2018-09-19T03:15:43.317Z,98212.53
2018-09-19T03:18:12.692Z,98216.11
2018-09-19T03:20:42.128Z,98208.75
2018-09-19T03:23:11.492Z,98211.11
2018-09-19T03:25:40.882Z,98210.70
2018-09-19T03:28:10.644Z,98219.69
2018-09-19T03:30:40.034Z,98216.21
2018-09-19T03:33:09.406Z,98213.23
2018-09-19T03:35:38.806Z,98219.53
2018-09-19T03:38:08.170Z,98218.23
2018-09-19T03:40:37.552Z,98213.12
2018-09-19T03:43:06.920Z,98220.08
2018-09-19T03:45:36.287Z,98229.45
2018-09-19T03:48:05.687Z,98229.05
2018-09-19T03:50:35.046Z,98229.45
2018-09-19T03:53:04.446Z,98230.70
2018-09-19T03:55:33.821Z,98227.32
2018-09-19T03:58:03.216Z,98228.72
2018-09-19T04:00:32.590Z,98222.38
2018-09-19T04:03:01.951Z,98227.19
2018-09-19T04:05:31.318Z,98231.55
2018-09-19T04:08:00.727Z,98240.09
2018-09-19T04:10:30.091Z,98228.03
2018-09-19T04:12:59.462Z,98227.69
2018-09-19T04:15:28.837Z,98229.03
2018-09-19T04:17:58.227Z,98229.97
2018-09-19T04:20:27.687Z,98233.84
2018-09-19T04:22:57.050Z,98232.05
2018-09-19T04:25:26.481Z,98236.22
2018-09-19T04:27:55.890Z,98235.42
2018-09-19T04:30:25.273Z,98236.27
2018-09-19T04:32:54.642Z,98236.77
2018-09-19T04:35:24.026Z,98233.98
2018-09-19T04:37:53.451Z,98239.14
2018-09-19T04:40:22.849Z,98238.36
2018-09-19T04:42:52.300Z,98235.42
2018-09-19T04:45:21.759Z,98240.88
2018-09-19T04:47:51.954Z,98233.54
2018-09-19T04:50:21.316Z,98231.50
2018-09-19T04:52:50.710Z,98229.47
2018-09-19T04:55:20.101Z,98230.34
2018-09-19T04:57:49.538Z,98232.64
2018-09-19T05:00:18.939Z,98249.86
2018-09-19T05:02:48.322Z,98242.95
2018-09-19T05:05:17.886Z,98252.03
2018-09-19T05:07:47.250Z,98253.33
2018-09-19T05:10:16.635Z,98256.03
2018-09-19T05:12:45.990Z,98258.52
2018-09-19T05:15:15.376Z,98262.66
2018-09-19T05:17:44.774Z,98265.85
2018-09-19T05:20:14.873Z,98269.68
2018-09-19T05:22:44.290Z,98273.09
2018-09-19T05:25:13.662Z,98278.75
2018-09-19T05:27:43.101Z,98278.79
2018-09-19T05:30:12.475Z,98283.14
2018-09-19T05:32:41.850Z,98284.07
2018-09-19T05:35:11.290Z,98288.25
2018-09-19T05:37:40.646Z,98281.20
2018-09-19T05:40:11.159Z,98281.59
2018-09-19T05:42:40.639Z,98284.58
2018-09-19T05:45:10.311Z,98279.91
2018-09-19T05:47:39.830Z,98284.08
2018-09-19T05:50:09.493Z,98290.02
2018-09-19T05:52:38.981Z,98292.96
2018-09-19T05:55:08.711Z,98293.67
2018-09-19T05:57:38.294Z,98290.24
2018-09-19T06:00:08.033Z,98290.47
2018-09-19T06:02:37.482Z,98278.19
2018-09-19T06:05:07.089Z,98279.28
2018-09-19T06:07:36.654Z,98281.66
2018-09-19T06:10:06.362Z,98284.30
2018-09-19T06:12:35.867Z,98289.36
2018-09-19T06:15:05.532Z,98296.05
2018-09-19T06:17:35.115Z,98289.91
2018-09-19T06:20:04.700Z,98289.75
2018-09-19T06:22:34.206Z,98294.70
2018-09-19T06:25:03.950Z,98292.36
2018-09-19T06:27:33.534Z,98284.84
2018-09-19T06:30:03.159Z,98284.67
2018-09-19T06:32:32.750Z,98283.72
2018-09-19T06:35:02.387Z,98290.41
2018-09-19T06:37:31.906Z,98287.67
2018-09-19T06:40:01.541Z,98286.14
2018-09-19T06:42:31.064Z,98282.86
2018-09-19T06:45:00.864Z,98286.42
2018-09-19T06:47:30.496Z,98284.00
2018-09-19T06:50:00.046Z,98281.72
2018-09-19T06:52:29.541Z,98284.95
2018-09-19T06:54:59.191Z,98279.99
2018-09-19T06:57:28.797Z,98281.02
2018-09-19T06:59:58.420Z,98277.63
2018-09-19T07:02:27.944Z,98284.41
2018-09-19T07:04:57.498Z,98288.83
2018-09-19T07:07:27.121Z,98292.23
2018-09-19T07:09:56.654Z,98284.86
2018-09-19T07:12:26.315Z,98302.04
2018-09-19T07:14:55.857Z,98298.88
2018-09-19T07:17:25.571Z,98308.52
2018-09-19T07:19:55.185Z,98310.44
2018-09-19T07:22:24.967Z,98313.22
2018-09-19T07:24:54.612Z,98310.06
2018-09-19T07:27:24.210Z,98305.50
2018-09-19T07:29:53.850Z,98311.03
2018-09-19T07:32:23.502Z,98312.21
2018-09-19T07:34:53.187Z,98313.70
2018-09-19T07:37:22.706Z,98312.64
2018-09-19T07:39:52.322Z,98305.70
2018-09-19T07:42:21.891Z,98299.64
2018-09-19T07:44:51.384Z,98299.59
2018-09-19T07:47:20.886Z,98299.98
2018-09-19T07:49:50.418Z,98280.86
2018-09-19T07:52:19.906Z,98299.47
2018-09-19T07:54:49.578Z,98306.32
2018-09-19T07:57:19.201Z,98300.91
2018-09-19T07:59:48.809Z,98301.25
2018-09-19T08:02:18.358Z,98294.13
2018-09-19T08:04:47.896Z,98296.06
2018-09-19T08:07:17.418Z,98267.06
2018-09-19T08:09:47.086Z,98300.87
2018-09-19T08:12:16.600Z,98300.38
2018-09-19T08:14:46.238Z,98305.22
2018-09-19T08:17:15.933Z,98301.05
2018-09-19T08:19:45.459Z,98295.92
2018-09-19T08:22:15.084Z,98303.20
2018-09-19T08:24:44.768Z,98279.34
2018-09-19T08:27:14.329Z,98296.72
2018-09-19T08:29:44.013Z,98295.16
2018-09-19T08:32:13.579Z,98196.20
2018-09-19T08:34:43.135Z,98294.68
2018-09-19T08:37:12.614Z,98295.77
2018-09-19T08:39:42.249Z,98300.44
2018-09-19T08:42:11.919Z,98302.70
2018-09-19T08:44:41.453Z,98301.23
2018-09-19T08:47:10.935Z,98294.90
2018-09-19T08:49:40.351Z,98290.98
2018-09-19T08:52:09.768Z,98303.08
2018-09-19T08:54:39.244Z,98296.31
2018-09-19T08:57:08.819Z,98305.14
2018-09-19T08:59:38.315Z,98268.78
2018-09-19T09:02:07.805Z,98299.79
2018-09-19T09:04:37.248Z,98303.38
2018-09-19T09:07:06.779Z,98292.19
2018-09-19T09:09:36.328Z,98299.19
2018-09-19T09:12:05.862Z,98294.00
2018-09-19T09:14:35.328Z,98295.48
2018-09-19T09:17:04.836Z,98287.45
2018-09-19T09:19:34.324Z,98284.19
2018-09-19T09:22:03.848Z,98285.20
2018-09-19T09:24:33.307Z,98281.78
2018-09-19T09:27:02.889Z,98286.63
2018-09-19T09:29:32.248Z,98287.56
2018-09-19T09:32:01.783Z,98294.17
2018-09-19T09:34:31.180Z,98303.92
2018-09-19T09:37:00.736Z,98295.23
2018-09-19T09:39:30.188Z,98302.17
2018-09-19T09:41:59.686Z,98302.02
2018-09-19T09:44:29.228Z,98298.23
2018-09-19T09:46:59.464Z,98295.11
2018-09-19T09:49:29.121Z,98300.09
2018-09-19T09:51:59.319Z,98296.39
2018-09-19T09:54:28.888Z,98293.95
2018-09-19T09:56:59.462Z,98188.16
2018-09-19T09:59:28.985Z,98299.44
2018-09-19T10:01:59.368Z,98296.75
2018-09-19T10:04:28.794Z,98290.59
2018-09-19T10:06:59.318Z,98293.20
2018-09-19T10:09:28.808Z,98292.84
2018-09-19T10:11:59.432Z,98274.41
2018-09-19T10:14:28.880Z,98284.56
2018-09-19T10:16:59.306Z,98289.63
2018-09-19T10:19:28.764Z,98276.16
2018-09-19T10:21:59.366Z,98275.05
2018-09-19T10:24:28.903Z,98267.45
2018-09-19T10:26:59.296Z,98187.33
2018-09-19T10:29:28.786Z,98268.31
2018-09-19T10:31:59.315Z,98260.73
2018-09-19T10:34:28.791Z,98250.32
2018-09-19T10:37:05.920Z,98250.95
2018-09-19T10:39:35.630Z,98246.70
2018-09-19T10:42:05.098Z,98246.25
2018-09-19T10:44:34.684Z,98172.56
2018-09-19T10:47:04.144Z,98244.34
2018-09-19T10:49:33.665Z,98241.30
2018-09-19T10:52:03.048Z,98243.80
2018-09-19T10:54:32.537Z,98243.36
2018-09-19T10:57:02.050Z,98242.11
2018-09-19T10:59:31.396Z,98235.95
2018-09-19T11:02:00.767Z,98219.42
2018-09-19T11:04:30.244Z,98228.55
2018-09-19T11:06:59.643Z,98227.30
2018-09-19T11:09:29.364Z,98229.38
2018-09-19T11:11:59.801Z,98223.89
2018-09-19T11:14:29.299Z,98225.59
2018-09-19T11:16:59.693Z,98231.38
2018-09-19T11:19:29.124Z,98232.08
2018-09-19T11:21:59.745Z,98220.79
2018-09-19T11:24:29.174Z,98219.21
2018-09-19T11:26:59.704Z,98217.28
2018-09-19T11:29:29.090Z,98207.11
2018-09-19T11:31:59.789Z,98210.05
2018-09-19T11:34:29.344Z,98202.20
2018-09-19T11:36:59.872Z,98204.39
2018-09-19T11:39:29.377Z,98205.73
2018-09-19T11:41:59.825Z,98204.97
2018-09-19T11:44:29.323Z,98201.31
2018-09-19T11:46:59.926Z,98195.22
2018-09-19T11:49:29.404Z,98194.98
2018-09-19T11:51:59.843Z,98200.02
2018-09-19T11:54:29.312Z,98184.43
2018-09-19T11:56:59.881Z,98202.19
2018-09-19T11:59:29.264Z,98205.75
2018-09-19T12:02:00.053Z,98201.80
2018-09-19T12:04:29.526Z,98195.52
2018-09-19T12:07:00.047Z,98193.20
2018-09-19T12:09:29.561Z,98119.21
2018-09-19T12:12:00.012Z,98195.14
2018-09-19T12:14:29.541Z,98194.78
2018-09-19T12:17:00.213Z,98186.59
2018-09-19T12:19:29.685Z,98186.67
2018-09-19T12:22:00.077Z,98182.51
2018-09-19T12:24:29.580Z,98185.48
2018-09-19T12:27:00.090Z,98175.02
2018-09-19T12:29:29.668Z,98160.80
2018-09-19T12:32:00.084Z,98184.54
2018-09-19T12:34:29.479Z,98189.00
2018-09-19T12:37:00.151Z,98170.72
2018-09-19T12:39:29.677Z,98162.73
2018-09-19T12:42:00.228Z,98171.89
2018-09-19T12:44:29.680Z,98169.20
2018-09-19T12:47:00.045Z,98166.22
2018-09-19T12:49:29.718Z,98167.25
2018-09-19T12:52:00.215Z,98162.66
2018-09-19T12:54:29.651Z,98173.95
2018-09-19T12:57:00.248Z,98171.53
2018-09-19T12:59:29.749Z,98176.22
2018-09-19T13:02:00.481Z,98173.08
2018-09-19T13:04:29.952Z,98175.28
2018-09-19T13:07:00.462Z,98176.08
2018-09-19T13:09:29.932Z,98174.66
2018-09-19T13:12:00.562Z,98173.17
2018-09-19T13:14:30.082Z,98176.14
2018-09-19T13:17:00.410Z,98161.50
2018-09-19T13:19:29.816Z,98171.53
2018-09-19T13:27:00.015Z,98159.59
2018-09-19T13:29:29.460Z,98154.55
2018-09-19T13:31:59.079Z,98154.86
2018-09-19T13:34:28.551Z,98152.33
2018-09-19T13:36:57.999Z,98145.12
2018-09-19T13:39:28.460Z,98144.33
2018-09-19T13:41:57.925Z,98144.99
2018-09-19T13:44:27.455Z,98143.08
2018-09-19T13:46:57.060Z,98136.31
2018-09-19T13:49:30.930Z,98146.01
2018-09-19T13:52:13.171Z,98143.69
2018-09-19T13:54:42.593Z,98139.81
2018-09-19T13:57:12.167Z,98144.00
2018-09-19T13:59:41.838Z,98140.27
2018-09-19T14:02:11.336Z,98146.28
2018-09-19T14:04:40.847Z,98144.05
2018-09-19T14:07:10.386Z,98135.52
2018-09-19T14:09:39.903Z,98133.37
2018-09-19T14:12:09.521Z,98119.98
2018-09-19T14:14:39.099Z,98138.48
2018-09-19T14:17:08.820Z,98141.55
2018-09-19T14:19:38.265Z,98162.73
2018-09-19T14:22:07.894Z,98147.28
2018-09-19T14:24:38.408Z,98142.14
2018-09-19T14:27:07.917Z,98137.28
2018-09-19T14:29:37.556Z,98128.00
2018-09-19T14:32:07.120Z,98135.47
2018-09-19T14:34:36.752Z,98136.36
2018-09-19T14:37:06.514Z,98138.27
2018-09-19T14:39:36.089Z,98138.38
2018-09-19T14:42:09.925Z,98131.74
2018-09-19T14:44:39.459Z,98143.61
2018-09-19T14:47:08.980Z,98139.55
2018-09-19T14:49:38.440Z,98136.13
2018-09-19T14:52:08.268Z,98134.80
2018-09-19T14:54:37.840Z,98127.30
2018-09-19T14:57:07.246Z,98130.98
2018-09-19T14:59:36.828Z,98125.95
2018-09-19T15:02:06.546Z,98123.88
2018-09-19T15:04:36.077Z,98115.32
2018-09-19T15:07:05.584Z,98101.00
2018-09-19T15:09:35.048Z,98100.42
2018-09-19T15:12:04.491Z,98115.22
2018-09-19T15:14:34.016Z,98020.41
2018-09-19T15:17:03.425Z,98110.26
2018-09-19T15:19:32.823Z,98110.47
2018-09-19T15:22:02.364Z,98107.67
2018-09-19T15:24:31.899Z,98096.63
2018-09-19T15:27:01.511Z,98101.27
2018-09-19T15:29:30.962Z,98099.55
2018-09-19T15:32:00.948Z,98093.37
2018-09-19T15:34:30.688Z,98090.30
2018-09-19T15:37:00.939Z,98091.48
2018-09-19T15:39:30.547Z,98085.95
2018-09-19T15:42:01.082Z,98087.72
2018-09-19T15:44:30.758Z,98081.73
2018-09-19T15:47:03.160Z,98083.53
2018-09-19T15:49:34.884Z,98090.42
2018-09-19T15:52:06.167Z,98071.36
2018-09-19T15:54:37.366Z,98079.64
2018-09-19T15:57:08.138Z,98081.63
2018-09-19T15:59:45.425Z,98077.98
2018-09-19T16:02:16.755Z,98076.11
2018-09-19T16:04:48.421Z,98091.66
2018-09-19T16:07:26.225Z,98093.81
2018-09-19T16:10:03.739Z,98098.36
2018-09-19T16:12:36.397Z,98103.95
2018-09-19T16:15:10.069Z,98104.73
2018-09-19T16:17:41.795Z,98106.46
2018-09-19T16:20:14.374Z,98107.38
2018-09-19T16:22:46.166Z,98038.27
2018-09-19T16:25:18.232Z,98094.56
2018-09-19T16:27:49.260Z,98110.25
2018-09-19T16:30:21.131Z,98120.15
2018-09-19T16:32:53.274Z,98114.12
2018-09-19T16:35:25.760Z,98112.33
2018-09-19T16:37:57.615Z,98105.09
2018-09-19T16:40:29.178Z,98114.51
2018-09-19T16:43:01.171Z,98110.67
2018-09-19T16:45:33.033Z,98112.85
2018-09-19T16:48:04.686Z,98118.30
2018-09-19T16:50:36.901Z,98122.53
2018-09-19T16:53:08.849Z,98126.97
2018-09-19T16:55:40.284Z,98121.07
2018-09-19T16:58:12.209Z,98119.53
2018-09-19T17:00:44.459Z,98120.76
2018-09-19T17:03:17.074Z,98121.55
2018-09-19T17:05:49.456Z,98120.67
2018-09-19T17:08:20.895Z,98119.73
2018-09-19T17:10:52.512Z,98127.17
2018-09-19T17:13:23.696Z,98128.34
2018-09-19T17:16:00.518Z,98127.53
2018-09-19T17:18:31.811Z,98129.90
2018-09-19T17:21:03.541Z,98135.22
2018-09-19T17:23:34.978Z,98145.55
2018-09-19T17:26:06.345Z,98142.77
2018-09-19T17:28:44.538Z,98142.34
2018-09-19T17:31:16.396Z,98142.56
2018-09-19T17:33:53.918Z,98148.14
2018-09-19T17:36:25.154Z,98143.77
2018-09-19T17:38:57.582Z,98143.52
2018-09-19T17:41:28.703Z,98135.08
2018-09-19T17:44:00.153Z,98150.87
2018-09-19T17:46:33.195Z,98148.09
2018-09-19T17:49:06.856Z,98158.16
2018-09-19T17:51:39.279Z,98158.99
2018-09-19T17:54:10.328Z,98162.77
2018-09-19T17:56:45.525Z,98165.11
2018-09-19T17:59:19.967Z,98155.28
2018-09-19T18:01:51.537Z,98155.17
2018-09-19T18:04:23.166Z,98154.36
2018-09-19T18:06:56.180Z,98155.16
2018-09-19T18:09:27.438Z,98155.02
2018-09-19T18:11:58.914Z,98159.66
2018-09-19T18:14:31.796Z,98164.84
2018-09-19T18:17:05.252Z,98166.52
2018-09-19T18:19:37.735Z,98169.89
2018-09-19T18:22:15.651Z,98169.64
2018-09-19T18:24:47.459Z,98062.75
2018-09-19T18:27:20.930Z,98175.67
2018-09-19T18:29:55.454Z,98178.80
2018-09-19T18:32:30.167Z,98181.30
2018-09-19T18:35:04.990Z,98184.03
2018-09-19T18:37:37.624Z,98180.84
2018-09-19T18:40:12.536Z,98184.31
2018-09-19T18:42:47.609Z,98190.75
2018-09-19T18:45:21.666Z,98197.92
2018-09-19T18:47:56.930Z,98198.39
2018-09-19T18:50:31.301Z,98195.31
2018-09-19T18:53:05.913Z,98202.63
2018-09-19T18:55:40.176Z,98203.36
2018-09-19T18:58:19.805Z,98200.88
2018-09-19T19:00:54.411Z,98203.53
2018-09-19T19:03:28.890Z,98203.97
2018-09-19T19:06:03.031Z,98207.38
2018-09-19T19:08:36.983Z,98210.44
2018-09-19T19:11:14.462Z,98208.67
2018-09-19T19:13:48.365Z,98210.66
2018-09-19T19:16:22.660Z,98215.63
2018-09-19T19:18:56.445Z,98215.63
2018-09-19T19:21:30.204Z,98216.92
2018-09-19T19:24:07.772Z,98220.81
2018-09-19T19:26:43.849Z,98222.39
2018-09-19T19:29:20.781Z,98227.27
2018-09-19T19:31:55.704Z,98228.89
2018-09-19T19:34:31.594Z,98226.81
2018-09-19T19:37:12.354Z,98221.66
2018-09-19T19:39:46.850Z,98225.25
2018-09-19T19:42:40.169Z,98223.24
2018-09-19T19:45:16.335Z,98221.56
2018-09-19T19:47:51.404Z,98225.98
2018-09-19T19:50:30.175Z,98215.91
2018-09-19T19:53:04.696Z,98232.50
2018-09-19T19:55:40.787Z,98237.66
2018-09-19T19:58:16.668Z,98242.09
2018-09-19T20:00:52.894Z,98242.46
2018-09-19T20:03:27.332Z,98240.92
2018-09-19T20:06:17.961Z,98248.32
2018-09-19T20:08:52.828Z,98243.75
2018-09-19T20:11:26.879Z,98247.82
2018-09-19T20:14:11.939Z,98255.25
2018-09-19T20:17:01.131Z,98250.93
2018-09-19T20:19:44.751Z,98250.76
2018-09-19T20:22:29.776Z,98251.72
2018-09-19T20:25:05.993Z,98251.14
2018-09-19T20:27:46.191Z,98255.25
2018-09-19T20:30:29.272Z,98258.70
2018-09-19T20:33:11.576Z,98258.83
2018-09-19T20:35:50.814Z,98258.54
2018-09-19T20:38:36.749Z,98259.20
2018-09-19T20:41:21.673Z,98263.83
2018-09-19T20:43:57.541Z,98268.33
2018-09-19T20:46:33.161Z,98262.78
2018-09-19T20:49:10.638Z,98264.03
2018-09-19T20:51:45.089Z,98269.37
2018-09-19T20:54:24.959Z,98271.25
2018-09-19T20:57:05.211Z,98273.73
2018-09-19T20:59:42.472Z,98274.31
2018-09-19T21:02:19.838Z,98272.17
2018-09-19T21:04:56.555Z,98276.70
2018-09-19T21:07:33.966Z,98277.32
2018-09-19T21:10:11.433Z,98280.98
2018-09-19T21:12:46.034Z,98284.89
2018-09-19T21:15:22.721Z,98291.40
2018-09-19T21:18:01.124Z,98281.45
2018-09-19T21:20:35.806Z,98285.81
2018-09-19T21:23:15.353Z,98287.69
2018-09-19T21:25:51.134Z,98289.88
2018-09-19T21:28:29.413Z,98295.52
2018-09-19T21:31:04.855Z,98289.91
2018-09-19T21:33:39.818Z,98296.83
2018-09-19T21:36:13.976Z,98292.70
2018-09-19T21:38:51.760Z,98291.13
2018-09-19T21:41:26.078Z,98296.03
2018-09-19T21:44:01.188Z,98301.34
2018-09-19T21:46:39.792Z,98306.69
2018-09-19T21:49:15.348Z,98307.31
2018-09-19T21:51:49.446Z,98301.39
2018-09-19T21:58:11.939Z,98302.17
2018-09-19T22:00:41.536Z,98302.63
2018-09-19T22:03:10.960Z,98300.23
2018-09-19T22:05:40.410Z,98291.36
2018-09-19T22:08:09.840Z,98300.90
2018-09-19T22:10:39.250Z,98295.23
2018-09-19T22:13:08.680Z,98302.00
2018-09-19T22:15:38.075Z,98298.98
2018-09-19T22:18:07.484Z,98299.41
2018-09-19T22:20:36.895Z,98299.08
2018-09-19T22:23:06.376Z,98297.45
2018-09-19T22:25:35.811Z,98299.75
2018-09-19T22:28:05.244Z,98290.78
2018-09-19T22:30:34.656Z,98294.51
2018-09-19T22:33:04.163Z,98294.13
2018-09-19T22:35:33.564Z,98295.63
2018-09-19T22:38:03.003Z,98307.55
2018-09-19T22:40:32.415Z,98310.83
2018-09-19T22:43:01.844Z,98312.26
2018-09-19T22:45:31.267Z,98313.03
2018-09-19T22:48:00.681Z,98318.05
2018-09-19T22:50:30.227Z,98319.19
2018-09-19T22:52:59.637Z,98317.74
2018-09-19T22:55:29.059Z,98321.20
2018-09-19T22:57:58.487Z,98323.50
2018-09-19T23:00:27.892Z,98319.91
2018-09-19T23:02:57.355Z,98317.39
2018-09-19T23:05:26.791Z,98322.49
2018-09-19T23:07:56.206Z,98320.77
2018-09-19T23:10:25.678Z,98321.11
2018-09-19T23:12:55.087Z,98315.34
2018-09-19T23:15:24.585Z,98317.70
2018-09-19T23:17:54.025Z,98319.77
2018-09-19T23:20:23.449Z,98319.20
2018-09-19T23:22:52.900Z,98324.24
2018-09-19T23:25:22.315Z,98243.47
2018-09-19T23:27:51.748Z,98323.48
2018-09-19T23:30:21.212Z,98331.59
2018-09-19T23:32:50.625Z,98327.42
2018-09-19T23:35:20.052Z,98323.70
2018-09-19T23:37:49.500Z,98326.38
2018-09-19T23:40:18.901Z,98330.49
2018-09-19T23:42:48.340Z,98328.05
2018-09-19T23:45:17.767Z,98326.83
2018-09-19T23:47:47.167Z,98328.72
2018-09-19T23:50:16.578Z,98325.95
2018-09-19T23:52:46.089Z,98324.81
2018-09-19T23:55:15.496Z,98320.40
2018-09-19T23:57:45.040Z,98320.25
